Time;durP1;ratioP1;P1;durP2;ratioP2;P2;SDS_P1;SDS_P2;PMS_P1;PMS_P2;Temp;Humidity;BMP_temperature;BMP_pressure;BME280_temperature;BME280_humidity;BME280_pressure;Samples;Min_cycle;Max_cycle;Signal;HPM_P1;HPM_P2
2023/07/14 00:00:22;;;;;;;3.40;2.20;;;;;;;-145.18;100.00;46687.75;5073898;28;20170;-62
2023/07/14 00:02:49;;;;;;;6.83;2.47;;;;;;;-145.18;100.00;46693.59;5073550;28;20035;-62
2023/07/14 00:05:23;;;;;;;8.20;2.60;;;;;;;-145.18;100.00;46689.69;5074029;28;20074;-62
2023/07/14 00:07:50;;;;;;;8.43;2.43;;;;;;;-145.18;100.00;46685.78;5073987;28;20021;-62
2023/07/14 00:10:22;;;;;;;7.07;2.53;;;;;;;-145.18;100.00;46677.97;5073386;28;20124;-62
2023/07/14 00:12:49;;;;;;;9.50;2.73;;;;;;;-145.18;100.00;46689.69;5073475;28;20025;-62
2023/07/14 00:15:16;;;;;;;4.87;2.43;;;;;;;-145.18;100.00;46687.75;5073709;28;20025;-62
2023/07/14 00:17:42;;;;;;;4.33;2.63;;;;;;;-145.18;100.00;46676.03;5069250;28;20056;-62
2023/07/14 00:20:16;;;;;;;6.27;2.97;;;;;;;-145.18;100.00;46685.78;5073775;28;20036;-62
2023/07/14 00:22:43;;;;;;;7.80;3.33;;;;;;;-145.18;100.00;46679.94;5073712;28;20098;-62
2023/07/14 00:25:13;;;;;;;4.67;2.70;;;;;;;-145.18;100.00;46685.78;5063720;28;20033;-62
2023/07/14 00:27:39;;;;;;;4.10;2.80;;;;;;;-145.18;100.00;46676.03;5071196;28;20039;-62
2023/07/14 00:30:18;;;;;;;8.30;2.83;;;;;;;-145.18;100.00;46670.16;5073549;28;20510;-62
2023/07/14 00:32:45;;;;;;;6.10;2.67;;;;;;;-145.18;100.00;46674.06;5072962;28;20033;-62
2023/07/14 00:35:28;;;;;;;7.33;2.70;;;;;;;-145.18;100.00;46672.13;5073458;28;20399;-62
2023/07/14 00:37:57;;;;;;;6.40;2.93;;;;;;;-145.18;100.00;46668.22;5062461;28;20106;-62
2023/07/14 00:40:49;;;;;;;7.70;2.80;;;;;;;-145.18;100.00;46662.34;5073446;28;20176;-62
2023/07/14 00:43:26;;;;;;;8.17;3.07;;;;;;;-145.18;100.00;46664.31;5069929;28;20041;-62
2023/07/14 00:45:54;;;;;;;5.73;2.97;;;;;;;-145.18;100.00;46662.34;5060973;28;20138;-62
2023/07/14 00:48:24;;;;;;;6.17;2.77;;;;;;;-145.18;100.00;46666.25;5072911;28;20105;-62
2023/07/14 00:50:58;;;;;;;6.63;2.93;;;;;;;-145.18;100.00;46660.41;5072859;28;20032;-62
2023/07/14 00:53:30;;;;;;;6.43;3.00;;;;;;;-145.18;100.00;46656.50;5073375;28;20032;-62
2023/07/14 00:56:08;;;;;;;9.07;3.83;;;;;;;-145.18;100.00;46660.41;5073144;28;20032;-62
2023/07/14 00:58:34;;;;;;;5.93;3.40;;;;;;;-145.18;100.00;46658.44;5073153;28;20052;-62
2023/07/14 01:00:59;;;;;;;6.10;3.40;;;;;;;-145.18;100.00;46648.69;5071694;28;20473;-62
2023/07/14 01:03:24;;;;;;;9.20;3.93;;;;;;;-145.18;100.00;46656.50;5072707;28;20028;-62
2023/07/14 01:05:52;;;;;;;7.33;3.50;;;;;;;-145.18;100.00;46654.53;5072323;28;20086;-62
2023/07/14 01:08:18;;;;;;;8.20;3.63;;;;;;;-145.18;100.00;46652.59;5059713;28;20433;-65
2023/07/14 01:10:44;;;;;;;8.93;3.20;;;;;;;-145.18;100.00;46658.44;5072461;28;20037;-65
2023/07/14 01:13:09;;;;;;;9.03;3.67;;;;;;;-145.18;100.00;46650.63;5072386;28;20102;-65
2023/07/14 01:15:38;;;;;;;7.00;4.27;;;;;;;-145.18;100.00;46654.53;5072408;28;20029;-65
2023/07/14 01:18:04;;;;;;;8.80;4.13;;;;;;;-145.18;100.00;46654.53;5072086;28;20523;-65
2023/07/14 01:20:30;;;;;;;6.43;3.70;;;;;;;-145.18;100.00;46648.69;5070572;28;20036;-65
2023/07/14 01:23:17;;;;;;;6.90;3.77;;;;;;;-145.18;100.00;46650.63;5071980;28;20039;-65
2023/07/14 01:25:48;;;;;;;5.67;4.10;;;;;;;-145.18;100.00;46656.50;5072168;28;20024;-65
2023/07/14 01:28:15;;;;;;;8.20;4.37;;;;;;;-145.18;100.00;46648.69;5071873;28;20054;-65
2023/07/14 01:30:41;;;;;;;6.53;3.77;;;;;;;-145.18;100.00;46656.50;5071996;28;20028;-65
2023/07/14 01:33:15;;;;;;;12.83;4.63;;;;;;;-145.18;100.00;46654.53;5072090;28;20388;-65
2023/07/14 01:35:45;;;;;;;8.37;4.37;;;;;;;-145.18;100.00;46652.59;5072078;28;20074;-65
2023/07/14 01:38:11;;;;;;;8.97;3.63;;;;;;;-145.18;100.00;46648.69;5071917;28;20136;-65
2023/07/14 01:40:36;;;;;;;5.93;3.60;;;;;;;-145.18;100.00;46650.63;5070426;28;20119;-65
2023/07/14 01:43:03;;;;;;;6.67;3.57;;;;;;;-145.18;100.00;46650.63;5070149;28;20061;-65
2023/07/14 01:45:42;;;;;;;9.50;4.50;;;;;;;-145.18;100.00;46650.63;5071685;28;20035;-65
2023/07/14 01:48:12;;;;;;;7.57;3.77;;;;;;;-145.18;100.00;46652.59;5061817;28;20050;-65
2023/07/14 01:50:45;;;;;;;7.00;4.13;;;;;;;-145.18;100.00;46650.63;5072180;28;20028;-65
2023/07/14 01:53:22;;;;;;;9.13;3.70;;;;;;;-145.18;100.00;46650.63;5071926;28;20032;-65
2023/07/14 01:55:52;;;;;;;11.40;4.13;;;;;;;-145.18;100.00;46650.63;5071766;28;20592;-65
2023/07/14 01:58:23;;;;;;;6.80;4.00;;;;;;;-145.18;100.00;46648.69;5071816;28;20555;-65
2023/07/14 02:00:51;;;;;;;5.63;3.63;;;;;;;-145.18;100.00;46648.69;5072071;28;20107;-65
2023/07/14 02:03:27;;;;;;;5.60;3.50;;;;;;;-145.18;100.00;46654.53;5070952;28;20094;-65
2023/07/14 02:05:53;;;;;;;6.20;3.57;;;;;;;-145.18;100.00;46648.69;5070945;28;20048;-65
2023/07/14 02:08:25;;;;;;;5.17;3.47;;;;;;;-145.18;100.00;46646.72;5071975;28;20059;-65
2023/07/14 02:10:51;;;;;;;5.90;3.70;;;;;;;-145.18;100.00;46648.69;5071958;28;20052;-65
2023/07/14 02:13:16;;;;;;;8.50;3.93;;;;;;;-145.18;100.00;46650.63;5072028;28;20108;-66
2023/07/14 02:15:42;;;;;;;9.60;4.10;;;;;;;-145.18;100.00;46648.69;5071071;28;20056;-65
2023/07/14 02:18:13;;;;;;;6.83;3.70;;;;;;;-145.18;100.00;46648.69;5071937;28;20024;-62
2023/07/14 02:20:41;;;;;;;6.90;4.10;;;;;;;-145.18;100.00;46648.69;5071861;28;20039;-62
2023/07/14 02:23:14;;;;;;;5.83;3.83;;;;;;;-145.18;100.00;46650.63;5071528;28;20037;-62
2023/07/14 02:25:43;;;;;;;5.10;3.57;;;;;;;-145.18;100.00;46644.78;5071816;28;20115;-62
2023/07/14 02:28:10;;;;;;;8.00;3.80;;;;;;;-145.18;100.00;46652.59;5071707;28;20028;-62
2023/07/14 02:30:36;;;;;;;6.47;3.30;;;;;;;-145.18;100.00;46652.59;5071571;28;20104;-62
2023/07/14 02:33:17;;;;;;;7.73;3.30;;;;;;;-145.18;100.00;46644.78;5073925;28;20028;-61
2023/07/14 02:36:04;;;;;;;8.47;3.77;;;;;;;-145.18;100.00;46650.63;5075669;28;20056;-62
2023/07/14 02:38:30;;;;;;;8.27;3.77;;;;;;;-145.18;100.00;46654.53;5075676;28;20024;-62
2023/07/14 02:41:19;;;;;;;8.70;3.13;;;;;;;-145.18;100.00;46650.63;5076072;28;20028;-62
2023/07/14 02:43:49;;;;;;;6.50;3.30;;;;;;;-145.18;100.00;46652.59;5063848;28;20149;-62
2023/07/14 02:46:40;;;;;;;6.70;4.27;;;;;;;-145.18;100.00;46654.53;5073697;28;20476;-62
2023/07/14 02:49:07;;;;;;;9.83;3.97;;;;;;;-145.18;100.00;46656.50;5066619;28;20454;-62
2023/07/14 02:51:32;;;;;;;8.33;3.90;;;;;;;-145.18;100.00;46654.53;5073757;28;20480;-62
2023/07/14 02:53:58;;;;;;;5.07;3.53;;;;;;;-145.18;100.00;46646.72;5075551;28;20053;-61
2023/07/14 02:56:23;;;;;;;6.63;3.60;;;;;;;-145.18;100.00;46656.50;5074150;28;20105;-62
2023/07/14 02:58:49;;;;;;;6.13;3.77;;;;;;;-145.18;100.00;46654.53;5075623;28;20040;-62
2023/07/14 03:01:17;;;;;;;8.43;3.70;;;;;;;-145.18;100.00;46656.50;5074671;28;21540;-63
2023/07/14 03:03:47;;;;;;;8.63;3.90;;;;;;;-145.18;100.00;46656.50;5075195;28;20028;-62
2023/07/14 03:06:14;;;;;;;6.73;3.43;;;;;;;-145.18;100.00;46646.72;5075257;28;20021;-62
2023/07/14 03:08:40;;;;;;;11.07;3.77;;;;;;;-145.18;100.00;46654.53;5075192;28;20108;-62
2023/07/14 03:11:06;;;;;;;9.27;4.07;;;;;;;-145.18;100.00;46648.69;5074899;28;20143;-62
2023/07/14 03:13:31;;;;;;;5.80;3.40;;;;;;;-145.18;100.00;46654.53;5075288;28;20028;-62
2023/07/14 03:15:57;;;;;;;7.10;3.57;;;;;;;-145.18;100.00;46654.53;5074789;28;20044;-62
2023/07/14 03:18:23;;;;;;;6.30;3.70;;;;;;;-145.18;100.00;46656.50;5073615;28;20032;-62
2023/07/14 03:20:48;;;;;;;10.07;3.37;;;;;;;-145.18;100.00;46654.53;5074917;28;20027;-62
2023/07/14 03:23:14;;;;;;;7.03;3.50;;;;;;;-145.18;100.00;46654.53;5074881;28;20430;-62
2023/07/14 03:25:40;;;;;;;6.07;3.27;;;;;;;-145.18;100.00;46652.59;5074582;28;20545;-62
2023/07/14 03:28:06;;;;;;;6.73;3.63;;;;;;;-145.18;100.00;46648.69;5074717;28;20518;-62
2023/07/14 03:30:37;;;;;;;8.53;3.60;;;;;;;-145.18;100.00;46648.69;5074614;28;20024;-62
2023/07/14 03:33:03;;;;;;;9.37;4.27;;;;;;;-145.18;100.00;46646.72;5074502;28;20510;-62
2023/07/14 03:35:28;;;;;;;8.13;4.10;;;;;;;-145.18;100.00;46648.69;5074686;28;20032;-62
2023/07/14 03:37:53;;;;;;;5.57;3.43;;;;;;;-145.18;100.00;46652.59;5073134;28;20442;-62
2023/07/14 03:40:19;;;;;;;7.13;3.00;;;;;;;-145.18;100.00;46646.72;5074050;28;20037;-62
2023/07/14 03:42:44;;;;;;;10.97;3.90;;;;;;;-145.18;100.00;46646.72;5074517;28;20033;-62
2023/07/14 03:45:10;;;;;;;10.50;3.40;;;;;;;-145.18;100.00;46648.69;5073714;28;20036;-62
2023/07/14 03:47:38;;;;;;;8.20;4.40;;;;;;;-145.18;100.00;46646.72;5074579;28;20025;-62
2023/07/14 03:50:04;;;;;;;4.97;3.73;;;;;;;-145.18;100.00;46648.69;5073098;28;20111;-62
2023/07/14 03:52:29;;;;;;;7.00;3.73;;;;;;;-145.18;100.00;46656.50;5072715;28;20056;-62
2023/07/14 03:54:54;;;;;;;6.43;3.53;;;;;;;-145.18;100.00;46652.59;5074016;28;20059;-63
2023/07/14 03:57:20;;;;;;;6.30;3.40;;;;;;;-145.18;100.00;46648.69;5074088;28;20120;-62
2023/07/14 03:59:45;;;;;;;8.83;4.30;;;;;;;-145.18;100.00;46650.63;5073008;28;20040;-62
2023/07/14 04:02:10;;;;;;;6.27;3.33;;;;;;;-145.18;100.00;46650.63;5072132;28;20521;-62
2023/07/14 04:04:36;;;;;;;7.10;3.87;;;;;;;-145.18;100.00;46644.78;5073756;28;20024;-63
2023/07/14 04:07:02;;;;;;;10.10;3.93;;;;;;;-145.18;100.00;46646.72;5074030;28;20028;-62
2023/07/14 04:09:27;;;;;;;10.00;4.93;;;;;;;-145.18;100.00;46650.63;5069359;28;20036;-62
2023/07/14 04:11:53;;;;;;;6.27;3.80;;;;;;;-145.18;100.00;46654.53;5080565;28;20020;-62
2023/07/14 04:14:18;;;;;;;8.27;4.47;;;;;;;-145.18;100.00;46644.78;5073658;28;20041;-62
2023/07/14 04:16:44;;;;;;;7.63;4.00;;;;;;;-145.18;100.00;46646.72;5068061;28;20052;-62
2023/07/14 04:19:09;;;;;;;8.80;3.77;;;;;;;-145.18;100.00;46648.69;5073453;28;20035;-62
2023/07/14 04:21:34;;;;;;;11.33;4.70;;;;;;;-145.18;100.00;46644.78;5070707;28;20040;-62
2023/07/14 04:24:00;;;;;;;7.00;4.13;;;;;;;-145.18;100.00;46642.81;5073108;28;20024;-62
2023/07/14 04:26:27;;;;;;;10.37;3.87;;;;;;;-145.18;100.00;46646.72;5069338;28;20040;-62
2023/07/14 04:28:53;;;;;;;6.37;3.57;;;;;;;-145.18;100.00;46646.72;5067051;28;20025;-62
2023/07/14 04:31:19;;;;;;;9.23;4.13;;;;;;;-145.18;100.00;46644.78;5064848;28;20579;-62
2023/07/14 04:33:46;;;;;;;9.10;4.20;;;;;;;-145.18;100.00;46648.69;5071937;28;20054;-63
2023/07/14 04:36:13;;;;;;;9.93;4.17;;;;;;;-145.18;100.00;46646.72;5072866;28;20118;-62
2023/07/14 04:38:42;;;;;;;9.77;3.87;;;;;;;-145.18;100.00;46650.63;5073047;28;20617;-62
2023/07/14 04:41:08;;;;;;;7.17;4.37;;;;;;;-145.18;100.00;46642.81;5071542;28;20028;-62
2023/07/14 04:43:34;;;;;;;7.90;4.00;;;;;;;-145.18;100.00;46648.69;5072367;28;20029;-62
2023/07/14 04:45:59;;;;;;;6.37;3.93;;;;;;;-145.18;100.00;46648.69;5071442;28;20025;-62
2023/07/14 04:48:24;;;;;;;6.70;3.97;;;;;;;-145.18;100.00;46654.53;5068302;28;20103;-62
2023/07/14 04:50:51;;;;;;;7.17;4.00;;;;;;;-145.18;100.00;46650.63;5071913;28;20054;-62
2023/07/14 04:53:17;;;;;;;11.90;4.83;;;;;;;-145.18;100.00;46648.69;5059674;28;20040;-62
2023/07/14 04:55:45;;;;;;;9.53;4.97;;;;;;;-145.18;100.00;46646.72;5072063;28;20567;-62
2023/07/14 04:58:14;;;;;;;12.40;5.03;;;;;;;-145.18;100.00;46650.63;5072914;28;20036;-62
2023/07/14 05:00:41;;;;;;;13.83;5.73;;;;;;;-145.18;100.00;46648.69;5065988;28;20504;-62
2023/07/14 05:03:07;;;;;;;9.50;5.70;;;;;;;-145.18;100.00;46642.81;5070922;28;20484;-62
2023/07/14 05:05:32;;;;;;;10.47;5.43;;;;;;;-145.18;100.00;46644.78;5071791;28;20062;-62
2023/07/14 05:08:00;;;;;;;9.43;5.37;;;;;;;-145.18;100.00;46642.81;5072524;28;20028;-63
2023/07/14 05:10:27;;;;;;;10.37;5.50;;;;;;;-145.18;100.00;46642.81;5067119;28;20420;-63
2023/07/14 05:12:54;;;;;;;9.43;5.60;;;;;;;-145.18;100.00;46648.69;5073002;28;20035;-63
2023/07/14 05:15:21;;;;;;;13.13;6.47;;;;;;;-145.18;100.00;46646.72;5072221;28;20468;-63
2023/07/14 05:17:47;;;;;;;14.00;6.07;;;;;;;-145.18;100.00;46644.78;5071701;28;20040;-62
2023/07/14 05:20:16;;;;;;;10.23;6.47;;;;;;;-145.18;100.00;46642.81;5072325;28;20033;-62
2023/07/14 05:22:44;;;;;;;11.73;5.83;;;;;;;-145.18;100.00;46646.72;5072623;28;20074;-62
2023/07/14 05:25:10;;;;;;;12.90;5.73;;;;;;;-145.18;100.00;46640.88;5067924;28;20032;-62
2023/07/14 05:27:38;;;;;;;11.10;6.13;;;;;;;-145.18;100.00;46642.81;5072584;28;20028;-62
2023/07/14 05:30:06;;;;;;;8.40;5.60;;;;;;;-145.18;100.00;46646.72;5067950;28;20044;-62
2023/07/14 05:32:32;;;;;;;10.63;5.03;;;;;;;-145.18;100.00;46642.81;5072369;28;20472;-62
2023/07/14 05:34:58;;;;;;;12.23;5.63;;;;;;;-145.18;100.00;46640.88;5072128;28;20111;-62
2023/07/14 05:37:23;;;;;;;9.53;5.23;;;;;;;-145.18;100.00;46642.81;5072241;28;20025;-62
2023/07/14 05:39:50;;;;;;;10.07;5.27;;;;;;;-145.18;100.00;46646.72;5054269;28;20464;-62
2023/07/14 05:42:15;;;;;;;11.67;4.30;;;;;;;-145.18;100.00;46644.78;5072484;28;20464;-62
2023/07/14 05:44:40;;;;;;;13.03;5.43;;;;;;;-145.18;100.00;46644.78;5070525;28;20039;-62
2023/07/14 05:47:06;;;;;;;13.60;6.00;;;;;;;-145.18;100.00;46646.72;5071251;28;20169;-62
2023/07/14 05:49:31;;;;;;;10.07;4.90;;;;;;;-145.18;100.00;46652.59;5064086;28;20423;-62
2023/07/14 05:51:57;;;;;;;8.73;5.17;;;;;;;-145.18;100.00;46652.59;5071626;28;20033;-62
2023/07/14 05:54:24;;;;;;;12.63;5.40;;;;;;;-145.18;100.00;46648.69;5073022;28;20123;-62
2023/07/14 05:56:50;;;;;;;11.77;5.43;;;;;;;-145.18;100.00;46646.72;5063674;28;20068;-62
2023/07/14 05:59:16;;;;;;;14.07;5.67;;;;;;;-145.18;100.00;46648.69;5058842;28;20067;-62
2023/07/14 06:01:41;;;;;;;10.73;5.80;;;;;;;-145.18;100.00;46644.78;5057262;28;20064;-62
2023/07/14 06:04:06;;;;;;;11.70;6.17;;;;;;;-145.18;100.00;46644.78;5053382;28;20044;-62
2023/07/14 06:06:32;;;;;;;9.47;5.37;;;;;;;-145.18;100.00;46648.69;5061353;28;20098;-62
2023/07/14 06:08:58;;;;;;;9.80;5.07;;;;;;;-145.18;100.00;46648.69;5065034;28;20036;-62
2023/07/14 06:11:24;;;;;;;9.63;5.90;;;;;;;-145.18;100.00;46656.50;5065427;28;20039;-62
2023/07/14 06:13:49;;;;;;;12.07;5.83;;;;;;;-145.18;100.00;46654.53;5056349;28;20119;-63
2023/07/14 06:16:14;;;;;;;8.47;5.30;;;;;;;-145.18;100.00;46656.50;5055872;28;20415;-62
2023/07/14 06:18:41;;;;;;;14.27;5.30;;;;;;;-145.18;100.00;46656.50;5058306;28;20220;-62
2023/07/14 06:21:08;;;;;;;8.20;4.57;;;;;;;-145.18;100.00;46656.50;5064112;28;20511;-62
2023/07/14 06:23:33;;;;;;;12.60;5.50;;;;;;;-145.18;100.00;46652.59;5057948;28;20032;-62
2023/07/14 06:25:59;;;;;;;12.30;5.50;;;;;;;-145.18;100.00;46656.50;5064198;28;20029;-62
2023/07/14 06:28:25;;;;;;;15.40;7.00;;;;;;;-145.18;100.00;46652.59;5058023;28;20028;-62
2023/07/14 06:31:00;;;;;;;12.43;5.97;;;;;;;-145.18;100.00;46654.53;5065755;28;20031;-62
2023/07/14 06:33:26;;;;;;;11.10;5.70;;;;;;;-145.18;100.00;46652.59;5063133;28;20029;-63
2023/07/14 06:35:55;;;;;;;13.73;5.77;;;;;;;-145.18;100.00;46652.59;5062699;28;20415;-62
2023/07/14 06:38:20;;;;;;;15.97;6.57;;;;;;;-145.18;100.00;46652.59;5068606;28;20040;-62
2023/07/14 06:40:46;;;;;;;12.70;6.47;;;;;;;-145.18;100.00;46656.50;5070843;28;20028;-62
2023/07/14 06:43:11;;;;;;;15.17;6.23;;;;;;;-145.18;100.00;46662.34;5069385;28;20110;-63
2023/07/14 06:45:36;;;;;;;13.00;5.43;;;;;;;-145.18;100.00;46664.31;5071160;28;20044;-62
2023/07/14 06:48:03;;;;;;;15.80;6.37;;;;;;;-145.18;100.00;46664.31;5070755;28;20094;-62
2023/07/14 06:50:28;;;;;;;13.43;6.03;;;;;;;-145.18;100.00;46670.16;5070882;28;20059;-62
2023/07/14 06:52:54;;;;;;;16.17;5.83;;;;;;;-145.18;100.00;46670.16;5071197;28;20476;-62
2023/07/14 06:55:20;;;;;;;11.00;5.80;;;;;;;-145.18;100.00;46670.16;5070906;28;20028;-62
2023/07/14 06:57:46;;;;;;;15.93;5.93;;;;;;;-145.18;100.00;46672.13;5070721;28;20080;-62
2023/07/14 07:00:12;;;;;;;12.27;6.33;;;;;;;-145.18;100.00;46676.03;5069797;28;20036;-62
2023/07/14 07:02:38;;;;;;;11.97;5.43;;;;;;;-145.18;100.00;46674.06;5070334;28;20540;-62
2023/07/14 07:05:06;;;;;;;13.83;6.23;;;;;;;-145.18;100.00;46670.16;5058007;28;20484;-62
2023/07/14 07:07:35;;;;;;;13.17;6.37;;;;;;;-145.18;100.00;46668.22;5061990;28;20028;-63
2023/07/14 07:10:02;;;;;;;12.40;6.63;;;;;;;-145.18;100.00;46668.22;5065027;28;20066;-62
2023/07/14 07:12:27;;;;;;;16.27;6.10;;;;;;;-145.18;100.00;46666.25;5060477;28;20029;-62
2023/07/14 07:14:52;;;;;;;11.20;5.73;;;;;;;-145.18;100.00;46674.06;5067187;28;20388;-63
2023/07/14 07:17:18;;;;;;;19.47;6.13;;;;;;;-145.18;100.00;46670.16;5058658;28;20049;-63
2023/07/14 07:19:43;;;;;;;12.87;5.77;;;;;;;-145.18;100.00;46668.22;5064599;28;20041;-62
2023/07/14 07:22:09;;;;;;;15.40;6.30;;;;;;;-145.18;100.00;46668.22;5070169;28;20028;-62
2023/07/14 07:24:35;;;;;;;13.83;5.47;;;;;;;-145.18;100.00;46670.16;5072739;28;20036;-63
2023/07/14 07:27:01;;;;;;;14.03;5.67;;;;;;;-145.18;100.00;46648.69;5070502;28;20037;-62
2023/07/14 07:29:26;;;;;;;16.37;5.83;;;;;;;-145.18;100.00;46633.06;5073287;28;20075;-62
2023/07/14 07:31:52;;;;;;;18.73;6.07;;;;;;;-145.18;100.00;46615.47;5072067;28;20519;-63
2023/07/14 07:34:17;;;;;;;11.50;5.40;;;;;;;-145.18;100.00;46586.16;5067827;28;20044;-62
2023/07/14 07:36:42;;;;;;;15.60;5.50;;;;;;;-145.18;100.00;46568.59;5072218;28;20037;-62
2023/07/14 07:39:08;;;;;;;10.90;5.10;;;;;;;-145.18;100.00;46560.78;5067874;28;20044;-62
2023/07/14 07:41:34;;;;;;;10.20;4.60;;;;;;;-145.18;100.00;46558.81;5073168;28;20484;-62
2023/07/14 07:44:00;;;;;;;10.63;4.50;;;;;;;-145.18;100.00;46558.81;5068286;28;20036;-62
2023/07/14 07:46:27;;;;;;;10.40;5.30;;;;;;;-145.18;100.00;46556.88;5062340;28;20495;-62
2023/07/14 07:48:53;;;;;;;13.83;5.53;;;;;;;-145.18;100.00;46556.88;5073401;28;20471;-62
2023/07/14 07:51:19;;;;;;;13.57;5.20;;;;;;;-145.18;100.00;46551.00;5073932;28;20502;-62
2023/07/14 07:53:44;;;;;;;13.03;5.10;;;;;;;-145.18;100.00;46543.19;5073821;28;20024;-63
2023/07/14 07:56:11;;;;;;;14.17;4.80;;;;;;;-145.18;100.00;46545.16;5073467;28;20041;-62
2023/07/14 07:58:36;;;;;;;11.93;4.83;;;;;;;-145.18;100.00;46541.25;5073576;28;20028;-62
2023/07/14 08:01:03;;;;;;;13.90;5.30;;;;;;;-145.18;100.00;46541.25;5079735;28;20059;-62
2023/07/14 08:03:30;;;;;;;13.87;5.07;;;;;;;-145.18;100.00;46541.25;5074000;28;20135;-65
2023/07/14 08:06:04;;;;;;;11.57;4.97;;;;;;;-145.18;100.00;46543.19;5076037;28;20090;-65
2023/07/14 08:08:31;;;;;;;8.10;5.60;;;;;;;-145.18;100.00;46541.25;5062504;28;20032;-65
2023/07/14 08:10:56;;;;;;;10.57;4.70;;;;;;;-145.18;100.00;46543.19;5076482;28;20032;-66
2023/07/14 08:13:24;;;;;;;10.20;4.90;;;;;;;-145.18;100.00;46547.09;5073377;28;20024;-65
2023/07/14 08:15:53;;;;;;;12.20;4.90;;;;;;;-145.18;100.00;46547.09;5073258;28;20068;-65
2023/07/14 08:18:20;;;;;;;8.93;4.27;;;;;;;-145.18;100.00;46554.91;5060923;28;20500;-66
2023/07/14 08:20:47;;;;;;;8.50;3.70;;;;;;;-145.18;100.00;46551.00;5073207;28;20085;-65
2023/07/14 08:23:14;;;;;;;12.03;4.30;;;;;;;-145.18;100.00;46551.00;5073170;28;20594;-65
2023/07/14 08:25:40;;;;;;;13.67;5.37;;;;;;;-145.18;100.00;46549.06;5073121;28;20714;-65
2023/07/14 08:28:06;;;;;;;9.00;4.00;;;;;;;-145.18;100.00;46551.00;5069105;28;20146;-66
2023/07/14 08:30:31;;;;;;;7.57;4.00;;;;;;;-145.18;100.00;46554.91;5072467;28;20081;-65
2023/07/14 08:32:57;;;;;;;6.87;3.27;;;;;;;-145.18;100.00;46556.88;5073361;28;20033;-65
2023/07/14 08:35:24;;;;;;;10.33;3.70;;;;;;;-145.18;100.00;46549.06;5071664;28;20423;-66
2023/07/14 08:37:49;;;;;;;10.13;3.73;;;;;;;-145.18;100.00;46554.91;5072839;28;20033;-65
2023/07/14 08:40:20;;;;;;;6.67;3.70;;;;;;;-145.18;100.00;46535.38;5068935;28;20043;-66
2023/07/14 08:43:17;;;;;;;12.80;3.90;;;;;;;-145.18;100.00;46549.06;5071308;28;20067;-66
2023/07/14 08:45:55;;;;;;;11.53;4.17;;;;;;;-145.18;100.00;46554.91;5072761;28;20028;-65
2023/07/14 08:48:30;;;;;;;12.90;3.70;;;;;;;-145.18;100.00;46564.69;5072785;28;20043;-66
2023/07/14 08:51:02;;;;;;;6.53;3.47;;;;;;;-145.18;100.00;46554.91;5075829;28;20029;-65
2023/07/14 08:53:31;;;;;;;7.00;3.57;;;;;;;-145.18;100.00;46551.00;5072893;28;20107;-65
2023/07/14 08:56:10;;;;;;;9.63;3.50;;;;;;;-145.18;100.00;46558.81;5081835;28;20422;-65
2023/07/14 08:58:41;;;;;;;7.30;2.87;;;;;;;-145.18;100.00;46574.44;5061713;28;20058;-65
2023/07/14 09:01:19;;;;;;;5.20;3.03;;;;;;;-145.18;100.00;46562.72;5072700;28;20062;-65
2023/07/14 09:03:50;;;;;;;8.17;3.30;;;;;;;-145.18;100.00;46578.34;5072163;28;20039;-65
2023/07/14 09:06:30;;;;;;;7.43;2.97;;;;;;;-145.18;100.00;46574.44;5078701;28;20020;-65
2023/07/14 09:08:55;;;;;;;8.83;3.67;;;;;;;-145.18;100.00;46566.63;5072475;28;20031;-66
2023/07/14 09:11:30;;;;;;;8.33;3.27;;;;;;;-145.18;100.00;46617.41;5072231;28;20427;-66
2023/07/14 09:14:08;;;;;;;6.80;3.07;;;;;;;-145.18;100.00;47187.84;5072123;28;20035;-65
2023/07/14 09:16:42;;;;;;;6.87;2.90;;;;;;;-145.18;100.00;47168.28;5066692;28;20052;-66
2023/07/14 09:19:26;;;;;;;6.63;3.40;;;;;;;-145.18;100.00;47152.66;5072192;28;20036;-63
2023/07/14 09:22:13;;;;;;;6.53;2.67;;;;;;;-145.18;100.00;47127.28;5071673;28;20056;-62
2023/07/14 09:24:56;;;;;;;4.10;2.53;;;;;;;-145.18;100.00;47158.53;5062706;28;20120;-63
2023/07/14 09:27:27;;;;;;;6.23;3.00;;;;;;;-145.18;100.00;47156.56;5072070;28;20146;-63
2023/07/14 09:29:54;;;;;;;10.87;3.53;;;;;;;-145.18;100.00;47160.47;5071999;28;20121;-63
2023/07/14 09:32:32;;;;;;;5.40;2.40;;;;;;;-145.18;100.00;47137.03;5068373;28;20075;-62
2023/07/14 09:35:04;;;;;;;4.73;2.43;;;;;;;-145.18;100.00;47097.97;5067458;28;20052;-62
2023/07/14 09:37:33;;;;;;;5.60;2.60;;;;;;;-145.18;100.00;47094.06;5079554;28;20032;-62
2023/07/14 09:40:19;;;;;;;6.53;2.80;;;;;;;-145.18;100.00;47113.59;5071903;28;20039;-62
2023/07/14 09:42:51;;;;;;;12.23;2.73;;;;;;;-145.18;100.00;47082.34;5069421;28;20035;-63
2023/07/14 09:45:38;;;;;;;7.83;3.10;;;;;;;-145.18;100.00;47099.91;5064460;28;20028;-62
2023/07/14 09:48:30;;;;;;;8.23;3.50;;;;;;;-145.18;100.00;47090.16;5074751;28;20384;-62
2023/07/14 09:50:58;;;;;;;8.10;4.17;;;;;;;-145.18;100.00;47119.47;5079051;28;20028;-62
2023/07/14 09:53:23;;;;;;;6.63;3.50;;;;;;;-145.18;100.00;47117.50;5071660;28;20024;-63
2023/07/14 09:55:52;;;;;;;9.07;3.13;;;;;;;-145.18;100.00;47094.06;5073528;28;20387;-63
2023/07/14 09:58:23;;;;;;;7.47;3.17;;;;;;;-145.18;100.00;47097.97;5072063;28;20488;-62
2023/07/14 10:00:50;;;;;;;6.33;3.03;;;;;;;-145.18;100.00;47101.88;5081765;28;20417;-62
2023/07/14 10:03:16;;;;;;;6.43;2.80;;;;;;;-145.18;100.00;47078.44;5071862;28;20040;-62
2023/07/14 10:05:54;;;;;;;8.27;3.63;;;;;;;-145.18;100.00;47074.53;5070698;28;20036;-63
2023/07/14 10:08:44;;;;;;;8.43;3.40;;;;;;;-145.18;100.00;47062.81;5068537;28;20530;-63
2023/07/14 10:11:41;;;;;;;9.23;3.07;;;;;;;-145.18;100.00;47076.47;5072347;28;20107;-63
2023/07/14 10:14:15;;;;;;;7.20;3.03;;;;;;;-145.18;100.00;47068.66;5053668;28;20467;-63
2023/07/14 10:16:43;;;;;;;9.27;3.40;;;;;;;-145.18;100.00;47058.91;5062767;28;20051;-62
2023/07/14 10:19:15;;;;;;;8.10;3.43;;;;;;;-145.18;100.00;47066.72;5075361;28;20024;-62
2023/07/14 10:21:54;;;;;;;9.90;3.13;;;;;;;-145.18;100.00;47037.41;5071454;28;20361;-63
2023/07/14 10:24:21;;;;;;;4.93;3.07;;;;;;;-145.18;100.00;47035.44;5068514;28;20120;-63
2023/07/14 10:27:02;;;;;;;7.43;3.47;;;;;;;-145.18;100.00;47029.59;5070561;28;20509;-63
2023/07/14 10:29:46;;;;;;;7.97;3.37;;;;;;;-145.18;100.00;47037.41;5071617;28;20036;-63
2023/07/14 10:32:50;;;;;;;8.57;3.97;;;;;;;-145.18;100.00;47066.72;5074630;28;20078;-62
2023/07/14 10:35:23;;;;;;;6.27;3.33;;;;;;;-145.18;100.00;47074.53;5054101;28;20037;-62
2023/07/14 10:37:56;;;;;;;8.93;3.43;;;;;;;-145.18;100.00;47080.38;5066046;28;20035;-63
2023/07/14 10:40:25;;;;;;;5.37;3.17;;;;;;;-145.18;100.00;47080.38;5072596;28;20046;-63
2023/07/14 10:43:02;;;;;;;5.83;3.13;;;;;;;-145.18;100.00;47092.09;5065153;28;20028;-63
2023/07/14 10:45:30;;;;;;;6.37;3.30;;;;;;;-145.18;100.00;47076.47;5065203;28;20036;-63
2023/07/14 10:48:13;;;;;;;6.17;2.80;;;;;;;-145.18;100.00;47066.72;5065604;28;20100;-63
2023/07/14 10:51:05;;;;;;;8.43;2.77;;;;;;;-145.18;100.00;47060.84;5067570;28;20056;-63
2023/07/14 10:53:55;;;;;;;7.47;3.33;;;;;;;-145.18;100.00;47062.81;5059120;28;20078;-63
2023/07/14 10:56:29;;;;;;;5.13;2.53;;;;;;;-145.18;100.00;47078.44;5065982;28;20070;-63
2023/07/14 10:59:27;;;;;;;4.85;2.65;;;;;;;-145.18;100.00;47076.47;5068925;28;20067;-62
2023/07/14 11:02:05;;;;;;;8.40;2.87;;;;;;;-145.18;100.00;47035.44;5071375;28;20032;-63
2023/07/14 11:04:37;;;;;;;6.87;2.83;;;;;;;-145.18;100.00;47043.28;5072342;28;20735;-63
2023/07/14 11:07:04;;;;;;;6.50;3.03;;;;;;;-145.18;100.00;47047.19;5069497;28;20031;-62
2023/07/14 11:09:30;;;;;;;4.23;2.50;;;;;;;-145.18;100.00;47045.22;5069664;28;20024;-63
2023/07/14 11:11:59;;;;;;;6.07;3.03;;;;;;;-145.18;100.00;47037.41;5069596;28;20025;-63
2023/07/14 11:14:36;;;;;;;7.47;3.03;;;;;;;-145.18;100.00;47031.53;5069284;28;20032;-63
2023/07/14 11:17:04;;;;;;;3.80;2.17;;;;;;;-145.18;100.00;47012.00;5068595;28;20128;-63